createdAt,value
2023-02-25T00:01:51.260Z,2.53
2023-02-25T00:03:54.786Z,2.53
2023-02-25T00:05:56.883Z,2.49
2023-02-25T00:07:58.953Z,2.54
2023-02-25T00:10:01.831Z,2.54
2023-02-25T00:12:04.376Z,2.47
2023-02-25T00:14:06.540Z,2.42
2023-02-25T00:16:09.858Z,2.54
2023-02-25T00:18:11.869Z,2.50
2023-02-25T00:20:14.391Z,2.51
2023-02-25T00:22:16.413Z,2.48
2023-02-25T00:24:18.343Z,2.46
2023-02-25T00:26:22.337Z,2.56
2023-02-25T00:28:24.397Z,2.58
2023-02-25T00:30:26.513Z,2.63
2023-02-25T00:32:29.617Z,2.69
2023-02-25T00:34:31.757Z,2.69
2023-02-25T00:36:33.681Z,2.63
2023-02-25T00:38:36.684Z,2.68
2023-02-25T00:40:40.329Z,2.74
2023-02-25T00:42:42.994Z,2.75
2023-02-25T00:44:46.599Z,2.69
2023-02-25T00:46:48.605Z,2.69
2023-02-25T00:48:51.299Z,2.76
2023-02-25T00:50:53.169Z,2.75
2023-02-25T00:52:55.063Z,2.73
2023-02-25T00:54:56.948Z,2.74
2023-02-25T00:56:58.831Z,2.74
2023-02-25T00:59:00.908Z,2.83
2023-02-25T01:01:03.039Z,2.72
2023-02-25T01:03:04.919Z,2.71
2023-02-25T01:05:07.162Z,2.67
2023-02-25T01:07:09.445Z,2.71
2023-02-25T01:09:14.211Z,2.72
2023-02-25T01:11:23.854Z,2.68
2023-02-25T01:13:25.721Z,2.63
2023-02-25T01:15:30.792Z,2.62
2023-02-25T01:17:32.711Z,2.65
2023-02-25T01:19:34.533Z,2.71
2023-02-25T01:21:44.100Z,2.73
2023-02-25T01:23:49.485Z,2.67
2023-02-25T01:25:51.369Z,2.69
2023-02-25T01:27:57.329Z,2.59
2023-02-25T01:29:59.250Z,2.60
2023-02-25T01:32:02.852Z,2.58
2023-02-25T01:34:07.107Z,2.53
2023-02-25T01:36:09.218Z,2.55
2023-02-25T01:38:11.085Z,2.62
2023-02-25T01:40:18.456Z,2.52
2023-02-25T01:42:20.575Z,2.53
2023-02-25T01:44:56.035Z,2.45
2023-02-25T01:46:58.602Z,2.56
2023-02-25T01:49:02.448Z,2.56
2023-02-25T01:51:10.619Z,2.51
2023-02-25T01:53:13.486Z,2.40
2023-02-25T01:55:15.519Z,2.47
2023-02-25T01:57:19.034Z,2.46
2023-02-25T01:59:23.991Z,2.44
2023-02-25T02:01:30.286Z,2.40
2023-02-25T02:03:35.100Z,2.31
2023-02-25T02:05:56.794Z,2.37
2023-02-25T02:07:58.743Z,2.38
2023-02-25T02:10:02.420Z,2.32
2023-02-25T02:12:07.126Z,2.36
2023-02-25T02:14:13.418Z,2.29
2023-02-25T02:16:43.457Z,2.34
2023-02-25T02:18:52.157Z,2.25
2023-02-25T02:20:59.848Z,2.27
2023-02-25T02:23:17.903Z,2.28
2023-02-25T02:25:57.182Z,2.31
2023-02-25T02:28:46.488Z,2.27
2023-02-25T02:31:16.378Z,2.35
2023-02-25T02:33:39.174Z,2.30
2023-02-25T02:35:57.386Z,2.35
2023-02-25T02:38:22.643Z,2.36
2023-02-25T02:40:59.670Z,2.27
2023-02-25T02:43:20.789Z,2.31
2023-02-25T02:45:47.664Z,2.30
2023-02-25T02:48:03.445Z,2.27
2023-02-25T02:50:10.388Z,2.27
2023-02-25T02:52:21.436Z,2.25
2023-02-25T02:54:27.310Z,2.26
2023-02-25T02:56:33.095Z,2.24
2023-02-25T02:58:59.347Z,2.30
2023-02-25T03:01:18.740Z,2.22
2023-02-25T03:03:36.551Z,2.28
2023-02-25T03:05:41.073Z,2.23
2023-02-25T03:07:56.202Z,2.21
2023-02-25T03:10:04.171Z,2.19
2023-02-25T03:12:06.758Z,2.12
2023-02-25T03:14:08.900Z,2.11
2023-02-25T03:16:26.666Z,2.09
2023-02-25T03:18:41.451Z,2.10
2023-02-25T03:20:47.890Z,2.06
2023-02-25T03:22:52.134Z,2.01
2023-02-25T03:25:08.906Z,1.92
2023-02-25T03:27:26.277Z,2.02
2023-02-25T03:29:28.761Z,1.96
2023-02-25T03:31:37.032Z,1.95
2023-02-25T03:33:48.659Z,1.92
2023-02-25T03:35:51.692Z,1.88
2023-02-25T03:38:07.675Z,1.86
2023-02-25T03:40:14.037Z,1.84
2023-02-25T03:42:22.296Z,1.80
2023-02-25T03:44:32.283Z,1.77
2023-02-25T03:46:35.722Z,1.72
2023-02-25T03:48:39.266Z,1.69
2023-02-25T03:50:47.150Z,1.57
2023-02-25T03:52:49.322Z,1.52
2023-02-25T03:54:53.169Z,1.46
2023-02-25T03:56:55.028Z,1.47
2023-02-25T03:58:56.949Z,1.43
2023-02-25T04:01:02.880Z,1.35
2023-02-25T04:03:05.675Z,1.39
2023-02-25T04:05:07.965Z,1.36
2023-02-25T04:07:09.952Z,1.31
2023-02-25T04:09:11.886Z,1.30
2023-02-25T04:11:13.843Z,1.34
2023-02-25T04:13:16.991Z,1.23
2023-02-25T04:15:20.207Z,1.21
2023-02-25T04:17:22.385Z,1.11
2023-02-25T04:19:25.389Z,1.13
2023-02-25T04:21:36.852Z,1.05
2023-02-25T04:23:38.754Z,1.03
2023-02-25T04:25:40.741Z,1.08
2023-02-25T04:27:42.633Z,1.04
2023-02-25T04:29:45.134Z,1.15
2023-02-25T04:31:47.209Z,1.13
2023-02-25T04:33:49.712Z,1.18
2023-02-25T04:35:52.592Z,1.24
2023-02-25T04:37:54.673Z,1.24
2023-02-25T04:39:56.717Z,1.22
2023-02-25T04:41:58.770Z,1.18
2023-02-25T04:44:01.093Z,1.26
2023-02-25T04:46:03.062Z,1.17
2023-02-25T04:48:05.460Z,1.16
2023-02-25T04:50:09.721Z,1.10
2023-02-25T04:52:13.115Z,1.16
2023-02-25T04:54:18.630Z,1.11
2023-02-25T04:56:20.828Z,1.07
2023-02-25T04:58:22.871Z,1.13
2023-02-25T05:00:27.180Z,1.08
2023-02-25T05:02:29.123Z,1.04
2023-02-25T05:04:31.082Z,1.03
2023-02-25T05:06:33.437Z,1.08
2023-02-25T05:08:36.587Z,1.08
2023-02-25T05:10:39.487Z,1.07
2023-02-25T05:12:41.467Z,1.11
2023-02-25T05:14:43.452Z,1.06
2023-02-25T05:16:46.123Z,1.13
2023-02-25T05:18:48.554Z,1.04
2023-02-25T05:20:50.581Z,1.02
2023-02-25T05:22:52.538Z,1.00
2023-02-25T05:24:54.806Z,0.98
2023-02-25T05:26:56.673Z,1.00
2023-02-25T05:28:58.630Z,0.99
2023-02-25T05:31:08.262Z,0.97
2023-02-25T05:33:13.835Z,0.97
2023-02-25T05:35:15.845Z,0.95
2023-02-25T05:37:17.742Z,0.90
2023-02-25T05:39:19.730Z,0.99
2023-02-25T05:41:22.050Z,0.94
2023-02-25T05:43:24.229Z,0.92
2023-02-25T05:45:26.190Z,0.92
2023-02-25T05:47:29.090Z,0.93
2023-02-25T05:49:31.042Z,0.94
2023-02-25T05:51:32.953Z,0.95
2023-02-25T05:53:35.152Z,1.07
2023-02-25T05:55:42.219Z,1.06
2023-02-25T05:57:44.184Z,1.05
2023-02-25T05:59:46.236Z,1.01
2023-02-25T06:01:48.206Z,0.99
2023-02-25T06:03:59.007Z,0.99
2023-02-25T06:06:01.338Z,1.12
2023-02-25T06:08:03.242Z,1.15
2023-02-25T06:10:05.886Z,1.12
2023-02-25T06:12:08.399Z,1.12
2023-02-25T06:14:10.288Z,1.08
2023-02-25T06:16:12.334Z,1.12
2023-02-25T06:18:14.423Z,1.18
2023-02-25T06:20:17.854Z,1.23
2023-02-25T06:22:20.988Z,1.18
2023-02-25T06:24:23.666Z,1.21
2023-02-25T06:26:25.916Z,1.21
2023-02-25T06:28:28.045Z,1.19
2023-02-25T06:30:30.961Z,1.29
2023-02-25T06:32:33.139Z,1.24
2023-02-25T06:34:35.265Z,1.26
2023-02-25T06:36:37.300Z,1.33
2023-02-25T06:38:39.710Z,1.25
2023-02-25T06:40:41.680Z,1.30
2023-02-25T06:42:43.520Z,1.25
2023-02-25T06:44:45.467Z,1.36
2023-02-25T06:46:55.754Z,1.38
2023-02-25T06:48:57.810Z,1.38
2023-02-25T06:50:59.766Z,1.34
2023-02-25T06:53:01.634Z,1.43
2023-02-25T06:55:07.031Z,1.43
2023-02-25T06:57:08.951Z,1.40
2023-02-25T06:59:11.998Z,1.45
2023-02-25T07:01:16.053Z,1.42
2023-02-25T07:03:17.967Z,1.44
2023-02-25T07:05:20.389Z,1.53
2023-02-25T07:07:22.476Z,1.50
2023-02-25T07:09:24.368Z,1.50
2023-02-25T07:11:29.399Z,1.53
2023-02-25T07:13:31.515Z,1.62
2023-02-25T07:15:33.565Z,1.59
2023-02-25T07:17:35.876Z,1.63
2023-02-25T07:19:37.794Z,1.64
2023-02-25T07:21:40.705Z,1.63
2023-02-25T07:23:42.897Z,1.67
2023-02-25T07:25:44.777Z,1.61
2023-02-25T07:27:46.791Z,1.65
2023-02-25T07:29:48.766Z,1.68
2023-02-25T07:31:50.903Z,1.75
2023-02-25T07:33:55.000Z,1.85
2023-02-25T07:35:58.004Z,1.86
2023-02-25T07:38:00.019Z,1.94
2023-02-25T07:40:02.001Z,1.90
2023-02-25T07:42:04.092Z,1.93
2023-02-25T07:44:07.889Z,2.00
2023-02-25T07:46:10.477Z,1.95
2023-02-25T07:48:12.524Z,1.99
2023-02-25T07:50:14.471Z,2.07
2023-02-25T07:52:16.380Z,2.06
2023-02-25T07:54:21.352Z,2.02
2023-02-25T07:56:25.766Z,2.07
2023-02-25T07:58:28.853Z,2.16
2023-02-25T08:00:30.782Z,2.12
2023-02-25T08:02:32.855Z,2.11
2023-02-25T08:04:35.069Z,2.16
2023-02-25T08:06:38.950Z,2.22
2023-02-25T08:08:40.974Z,2.24
2023-02-25T08:10:43.483Z,2.26
2023-02-25T08:12:45.443Z,2.23
2023-02-25T08:14:47.379Z,2.19
2023-02-25T08:16:50.106Z,2.29
2023-02-25T08:18:53.254Z,2.25
2023-02-25T08:20:56.238Z,2.21
2023-02-25T08:22:59.301Z,2.34
2023-02-25T08:25:01.215Z,2.29
2023-02-25T08:27:04.407Z,2.33
2023-02-25T08:29:07.074Z,2.54
2023-02-25T08:31:12.556Z,2.67
2023-02-25T08:33:14.972Z,2.82
2023-02-25T08:35:16.993Z,3.01
2023-02-25T08:37:19.383Z,3.08
2023-02-25T08:39:21.269Z,3.04
2023-02-25T08:41:24.366Z,3.06
2023-02-25T08:43:26.402Z,3.02
2023-02-25T08:45:29.101Z,2.95
2023-02-25T08:47:31.157Z,2.94
2023-02-25T08:49:33.089Z,2.94
2023-02-25T08:51:36.130Z,2.96
2023-02-25T08:53:40.466Z,2.95
2023-02-25T08:55:42.445Z,2.97
2023-02-25T08:57:44.744Z,2.99
2023-02-25T08:59:46.623Z,3.01
2023-02-25T09:01:52.384Z,3.15
2023-02-25T09:03:54.370Z,3.24
2023-02-25T09:05:57.080Z,3.40
2023-02-25T09:07:59.303Z,3.43
2023-02-25T09:10:04.435Z,3.33
2023-02-25T09:12:08.971Z,3.41
2023-02-25T09:14:12.243Z,3.62
2023-02-25T09:16:17.684Z,3.66
2023-02-25T09:18:19.720Z,3.68
2023-02-25T09:20:21.752Z,3.75
2023-02-25T09:22:23.724Z,3.83
2023-02-25T09:24:30.159Z,3.89
2023-02-25T09:26:32.271Z,4.20
2023-02-25T09:28:34.586Z,4.39
2023-02-25T09:30:36.572Z,4.32
2023-02-25T09:32:38.758Z,4.28
2023-02-25T09:34:40.881Z,4.06
2023-02-25T09:36:43.339Z,3.94
2023-02-25T09:38:46.989Z,4.00
2023-02-25T09:40:49.779Z,4.18
2023-02-25T09:43:04.178Z,4.30
2023-02-25T09:45:15.702Z,4.47
2023-02-25T09:47:48.272Z,4.62
2023-02-25T09:49:58.130Z,4.48
2023-02-25T09:52:18.756Z,4.40
2023-02-25T09:54:34.990Z,4.35
2023-02-25T09:56:37.201Z,4.23
2023-02-25T09:58:46.999Z,4.24
2023-02-25T10:00:59.381Z,4.27
2023-02-25T10:03:12.275Z,4.21
2023-02-25T10:05:35.952Z,4.10
2023-02-25T10:08:07.724Z,3.97
2023-02-25T10:10:26.066Z,3.78
2023-02-25T10:12:57.090Z,3.26
2023-02-25T10:15:01.038Z,2.74
2023-02-25T10:17:32.041Z,2.46
2023-02-25T10:19:40.178Z,2.09
2023-02-25T10:22:06.588Z,2.09
2023-02-25T10:24:26.263Z,2.28
2023-02-25T10:26:40.089Z,2.36
2023-02-25T10:28:44.909Z,2.50
2023-02-25T10:31:03.070Z,2.66
2023-02-25T10:33:14.016Z,2.81
2023-02-25T10:35:29.240Z,2.86
2023-02-25T10:37:38.434Z,2.94
2023-02-25T10:39:41.384Z,3.12
2023-02-25T10:41:44.456Z,3.09
2023-02-25T10:43:46.394Z,3.17
2023-02-25T10:45:55.499Z,3.26
2023-02-25T10:48:14.007Z,2.75
2023-02-25T10:50:22.133Z,2.65
2023-02-25T10:52:26.339Z,2.52
2023-02-25T10:54:28.387Z,2.30
2023-02-25T10:56:49.992Z,1.96
2023-02-25T10:59:22.453Z,1.92
2023-02-25T11:01:25.821Z,1.71
2023-02-25T11:03:32.861Z,1.62
2023-02-25T11:05:40.903Z,1.53
2023-02-25T11:07:42.953Z,1.74
2023-02-25T11:09:45.351Z,2.19
2023-02-25T11:11:58.999Z,2.24
2023-02-25T11:14:16.412Z,2.47
2023-02-25T11:16:19.786Z,2.75
2023-02-25T11:18:31.684Z,2.75
2023-02-25T11:20:34.497Z,2.90
2023-02-25T11:22:41.575Z,3.04
2023-02-25T11:24:44.686Z,3.37
2023-02-25T11:26:49.818Z,3.24
2023-02-25T11:28:53.179Z,3.81
2023-02-25T11:31:04.116Z,3.76
2023-02-25T11:33:32.284Z,3.54
2023-02-25T11:35:38.766Z,3.42
2023-02-25T11:37:45.750Z,3.57
2023-02-25T11:39:56.317Z,3.42
2023-02-25T11:42:02.517Z,3.22
2023-02-25T11:44:27.412Z,3.11
2023-02-25T11:46:32.920Z,3.04
2023-02-25T11:48:54.078Z,2.29
2023-02-25T11:51:36.118Z,2.01
2023-02-25T11:53:43.657Z,2.09
2023-02-25T11:55:51.556Z,2.01
2023-02-25T11:58:13.914Z,2.07
2023-02-25T12:00:28.927Z,2.19
2023-02-25T12:02:30.946Z,2.22
2023-02-25T12:04:54.896Z,2.34
2023-02-25T12:07:42.993Z,2.43
2023-02-25T12:10:18.945Z,2.36
2023-02-25T12:12:39.947Z,2.48
2023-02-25T12:15:00.705Z,2.39
2023-02-25T12:17:36.950Z,2.23
2023-02-25T12:19:58.520Z,2.53
2023-02-25T12:22:44.128Z,2.53
2023-02-25T12:25:05.880Z,2.56
2023-02-25T12:27:18.986Z,2.62
2023-02-25T12:29:45.975Z,2.78
2023-02-25T12:32:08.716Z,2.64
2023-02-25T12:34:40.192Z,2.60
2023-02-25T12:36:50.754Z,2.99
2023-02-25T12:39:38.400Z,3.28
2023-02-25T12:41:45.985Z,3.16
2023-02-25T12:44:03.247Z,3.27
2023-02-25T12:46:44.025Z,3.31
2023-02-25T12:49:37.124Z,3.14
2023-02-25T12:52:05.618Z,2.71
2023-02-25T12:54:39.130Z,2.40
2023-02-25T12:56:53.504Z,2.28
2023-02-25T12:59:33.208Z,2.29
2023-02-25T13:02:03.855Z,2.38
2023-02-25T13:04:24.114Z,2.57
2023-02-25T13:06:47.789Z,2.85
2023-02-25T13:09:22.009Z,3.35
2023-02-25T13:12:10.476Z,3.43
2023-02-25T13:14:44.925Z,3.47
2023-02-25T13:17:17.835Z,3.51
2023-02-25T13:19:42.532Z,3.42
2023-02-25T13:22:16.481Z,3.42
2023-02-25T13:24:46.711Z,3.42
2023-02-25T13:27:07.193Z,3.53
2023-02-25T13:29:24.175Z,3.37
2023-02-25T13:32:03.009Z,3.23
2023-02-25T13:34:34.685Z,3.15
2023-02-25T13:36:52.660Z,3.11
2023-02-25T13:39:21.857Z,3.03
2023-02-25T13:41:59.169Z,3.05
2023-02-25T13:44:16.456Z,3.12
2023-02-25T13:46:37.580Z,3.17
2023-02-25T13:49:03.438Z,3.24
2023-02-25T13:51:12.578Z,3.28
2023-02-25T13:53:39.202Z,3.23
2023-02-25T13:56:01.022Z,3.35
2023-02-25T13:58:02.888Z,3.34
2023-02-25T14:00:24.309Z,3.36
2023-02-25T14:03:03.934Z,3.33
2023-02-25T14:05:24.362Z,3.16
2023-02-25T14:08:05.134Z,3.08
2023-02-25T14:10:22.295Z,3.05
2023-02-25T14:12:44.869Z,3.10
2023-02-25T14:14:54.435Z,3.02
2023-02-25T14:17:34.838Z,3.10
2023-02-25T14:19:58.198Z,2.94
2023-02-25T14:22:25.280Z,3.11
2023-02-25T14:24:33.821Z,3.12
2023-02-25T14:27:08.007Z,3.14
2023-02-25T14:29:18.998Z,3.05
2023-02-25T14:31:40.758Z,3.17
2023-02-25T14:33:51.507Z,3.17
2023-02-25T14:36:09.043Z,3.21
2023-02-25T14:38:15.248Z,3.22
2023-02-25T14:40:20.751Z,3.18
2023-02-25T14:42:48.914Z,3.06
2023-02-25T14:44:56.567Z,2.97
2023-02-25T14:47:05.430Z,2.89
2023-02-25T14:49:12.078Z,2.83
2023-02-25T14:51:48.421Z,2.71
2023-02-25T14:54:08.976Z,2.82
2023-02-25T14:56:50.001Z,2.72
2023-02-25T14:58:52.290Z,2.74
2023-02-25T15:01:28.452Z,2.68
2023-02-25T15:03:43.245Z,2.78
2023-02-25T15:06:04.314Z,2.73
2023-02-25T15:08:33.339Z,2.71
2023-02-25T15:10:56.536Z,2.81
2023-02-25T15:13:21.317Z,2.71
2023-02-25T15:15:48.448Z,2.68
2023-02-25T15:18:22.424Z,2.74
2023-02-25T15:20:39.602Z,2.72
2023-02-25T15:23:08.014Z,2.79
2023-02-25T15:25:22.336Z,2.80
2023-02-25T15:27:37.224Z,2.81
2023-02-25T15:29:45.524Z,2.84
2023-02-25T15:32:24.864Z,2.89
2023-02-25T15:34:38.251Z,2.74
2023-02-25T15:36:45.399Z,3.00
2023-02-25T15:38:58.628Z,2.75
2023-02-25T15:41:02.602Z,2.77
2023-02-25T15:43:11.336Z,2.73
2023-02-25T15:45:28.801Z,2.69
2023-02-25T15:47:34.560Z,2.71
2023-02-25T15:49:37.982Z,2.60
2023-02-25T15:51:47.816Z,2.65
2023-02-25T15:53:50.499Z,2.68
2023-02-25T15:56:14.354Z,2.68
2023-02-25T15:58:25.833Z,2.70
2023-02-25T16:00:48.022Z,2.62
2023-02-25T16:02:58.511Z,2.54
2023-02-25T16:05:14.243Z,2.60
2023-02-25T16:07:22.281Z,2.49
2023-02-25T16:09:26.539Z,2.44
2023-02-25T16:11:38.498Z,2.52
2023-02-25T16:13:43.584Z,2.61
2023-02-25T16:15:52.374Z,2.55
2023-02-25T16:17:58.216Z,2.56
2023-02-25T16:20:18.538Z,2.57
2023-02-25T16:22:24.661Z,2.59
2023-02-25T16:24:28.926Z,2.58
2023-02-25T16:26:59.777Z,2.57
2023-02-25T16:29:10.609Z,2.59
2023-02-25T16:31:22.621Z,2.61
2023-02-25T16:33:36.055Z,2.58
2023-02-25T16:35:57.684Z,2.48
2023-02-25T16:38:24.404Z,2.45
2023-02-25T16:40:29.558Z,2.45
2023-02-25T16:42:36.180Z,2.34
2023-02-25T16:44:40.186Z,2.35
2023-02-25T16:46:50.922Z,2.34
2023-02-25T16:49:00.246Z,2.32
2023-02-25T16:51:20.637Z,2.31
2023-02-25T16:53:26.884Z,2.29
2023-02-25T16:55:36.935Z,2.25
2023-02-25T16:57:41.301Z,2.29
2023-02-25T16:59:43.942Z,2.26
2023-02-25T17:02:00.371Z,2.34
2023-02-25T17:04:43.164Z,2.35
2023-02-25T17:07:05.656Z,2.36
2023-02-25T17:09:21.580Z,2.34
2023-02-25T17:11:25.560Z,2.48
2023-02-25T17:13:42.856Z,2.37
2023-02-25T17:15:45.293Z,2.34
2023-02-25T17:17:54.836Z,2.36
2023-02-25T17:19:59.060Z,2.41
2023-02-25T17:22:03.952Z,2.35
2023-02-25T17:24:14.552Z,2.42
2023-02-25T17:26:18.305Z,2.45
2023-02-25T17:28:24.649Z,2.40
2023-02-25T17:30:41.375Z,2.44
2023-02-25T17:32:59.423Z,2.48
2023-02-25T17:35:05.489Z,2.40
2023-02-25T17:37:10.138Z,2.32
2023-02-25T17:39:22.580Z,2.23
2023-02-25T17:41:26.125Z,2.20
2023-02-25T17:43:38.660Z,2.19
2023-02-25T17:45:52.666Z,2.18
2023-02-25T17:47:56.558Z,2.14
2023-02-25T17:50:10.999Z,2.18
2023-02-25T17:52:27.966Z,2.13
2023-02-25T17:54:35.321Z,2.09
2023-02-25T17:56:40.265Z,2.18
2023-02-25T17:58:44.426Z,2.12
2023-02-25T18:01:00.750Z,2.09
2023-02-25T18:03:21.430Z,2.13
2023-02-25T18:05:26.421Z,2.11
2023-02-25T18:07:38.644Z,2.09
2023-02-25T18:09:43.132Z,2.08
2023-02-25T18:11:47.097Z,2.08
2023-02-25T18:13:51.671Z,2.14
2023-02-25T18:16:19.740Z,2.13
2023-02-25T18:18:23.164Z,2.15
2023-02-25T18:20:31.575Z,2.16
2023-02-25T18:22:56.971Z,2.16
2023-02-25T18:25:02.929Z,2.17
2023-02-25T18:27:31.025Z,2.17
2023-02-25T18:29:34.747Z,2.22
2023-02-25T18:31:37.887Z,2.30
2023-02-25T18:33:41.044Z,2.28
2023-02-25T18:35:47.727Z,2.35
2023-02-25T18:37:56.732Z,2.25
2023-02-25T18:39:59.761Z,2.26
2023-02-25T18:42:02.288Z,2.37
2023-02-25T18:44:14.418Z,2.32
2023-02-25T18:46:17.553Z,2.19
2023-02-25T18:48:20.424Z,2.19
2023-02-25T18:50:24.113Z,2.19
2023-02-25T18:52:28.646Z,2.27
2023-02-25T18:54:31.721Z,2.25
2023-02-25T18:56:35.084Z,2.25
2023-02-25T18:58:38.517Z,2.27
2023-02-25T19:00:42.560Z,2.30
2023-02-25T19:02:58.105Z,2.24
2023-02-25T19:05:07.456Z,2.26
2023-02-25T19:07:13.690Z,2.17
2023-02-25T19:09:16.242Z,2.19
2023-02-25T19:11:25.306Z,2.16
2023-02-25T19:13:39.662Z,2.17
2023-02-25T19:15:44.297Z,2.15
2023-02-25T19:17:48.351Z,2.10
2023-02-25T19:19:51.721Z,2.15
2023-02-25T19:21:54.885Z,2.14
2023-02-25T19:23:58.056Z,2.14
2023-02-25T19:26:02.347Z,2.07
2023-02-25T19:28:06.677Z,2.02
2023-02-25T19:30:15.789Z,2.00
2023-02-25T19:32:19.231Z,2.00
2023-02-25T19:34:23.924Z,1.97
2023-02-25T19:36:27.502Z,2.04
2023-02-25T19:38:29.938Z,1.99
2023-02-25T19:40:32.861Z,1.96
2023-02-25T19:42:38.342Z,1.92
2023-02-25T19:44:40.960Z,1.94
2023-02-25T19:46:45.442Z,1.94
2023-02-25T19:48:48.433Z,1.92
2023-02-25T19:50:51.055Z,1.96
2023-02-25T19:52:56.429Z,1.94
2023-02-25T19:54:59.559Z,1.93
2023-02-25T19:57:02.514Z,1.89
2023-02-25T19:59:07.047Z,1.87
2023-02-25T20:01:10.106Z,1.85
2023-02-25T20:03:16.033Z,1.86
2023-02-25T20:05:19.036Z,1.81
2023-02-25T20:07:23.247Z,1.87
2023-02-25T20:09:25.777Z,1.85
2023-02-25T20:11:29.846Z,1.88
2023-02-25T20:13:32.606Z,1.91
2023-02-25T20:15:35.569Z,1.85
2023-02-25T20:17:40.718Z,1.86
2023-02-25T20:19:46.039Z,1.82
2023-02-25T20:21:49.138Z,1.81
2023-02-25T20:23:52.747Z,1.83
2023-02-25T20:26:07.373Z,1.82
2023-02-25T20:28:10.143Z,1.80
2023-02-25T20:30:18.636Z,1.79
2023-02-25T20:32:22.708Z,1.63
2023-02-25T20:34:29.162Z,1.55
2023-02-25T20:37:04.273Z,1.56
2023-02-25T20:39:37.855Z,1.56
2023-02-25T20:41:44.263Z,1.48
2023-02-25T20:43:47.129Z,1.46
2023-02-25T20:45:49.703Z,1.45
2023-02-25T20:47:53.264Z,1.38
2023-02-25T20:49:56.713Z,1.38
2023-02-25T20:52:01.529Z,1.35
2023-02-25T20:54:05.058Z,1.34
2023-02-25T20:56:13.290Z,1.33
2023-02-25T20:58:17.365Z,1.28
2023-02-25T21:00:20.928Z,1.22
2023-02-25T21:02:24.252Z,1.19
2023-02-25T21:04:27.266Z,1.16
2023-02-25T21:06:31.134Z,1.12
2023-02-25T21:08:35.174Z,1.08
2023-02-25T21:10:37.854Z,1.05
2023-02-25T21:12:41.010Z,1.01
2023-02-25T21:14:43.739Z,0.99
2023-02-25T21:16:46.034Z,0.96
2023-02-25T21:18:48.817Z,0.97
2023-02-25T21:21:04.320Z,1.00
2023-02-25T21:23:11.199Z,1.00
2023-02-25T21:25:16.091Z,0.99
2023-02-25T21:27:19.438Z,0.98
2023-02-25T21:29:22.830Z,0.95
2023-02-25T21:31:27.378Z,0.95
2023-02-25T21:33:30.679Z,0.96
2023-02-25T21:35:33.884Z,0.99
2023-02-25T21:37:36.133Z,0.95
2023-02-25T21:39:41.744Z,0.92
2023-02-25T21:41:45.953Z,0.90
2023-02-25T21:43:48.744Z,0.94
2023-02-25T21:45:59.899Z,0.95
2023-02-25T21:48:02.352Z,0.93
2023-02-25T21:50:11.410Z,0.93
2023-02-25T21:52:23.694Z,0.94
2023-02-25T21:54:29.032Z,0.91
2023-02-25T21:56:36.876Z,0.91
2023-02-25T21:58:46.493Z,0.87
2023-02-25T22:00:51.626Z,0.87
2023-02-25T22:02:53.949Z,0.87
2023-02-25T22:04:56.400Z,0.85
2023-02-25T22:07:06.958Z,0.83
2023-02-25T22:09:09.432Z,0.84
2023-02-25T22:11:13.671Z,0.85
2023-02-25T22:13:15.791Z,0.87
2023-02-25T22:15:21.364Z,0.81
2023-02-25T22:17:23.432Z,0.85
2023-02-25T22:19:25.441Z,0.79
2023-02-25T22:21:33.552Z,0.76
2023-02-25T22:23:38.866Z,0.72
2023-02-25T22:25:43.074Z,0.77
2023-02-25T22:27:45.209Z,0.68
2023-02-25T22:29:55.628Z,0.67
2023-02-25T22:32:01.067Z,0.60
2023-02-25T22:34:11.552Z,0.63
2023-02-25T22:36:19.267Z,0.59
2023-02-25T22:38:24.360Z,0.63
2023-02-25T22:40:26.956Z,0.55
2023-02-25T22:42:32.290Z,0.53
2023-02-25T22:44:34.300Z,0.56
2023-02-25T22:46:38.964Z,0.56
2023-02-25T22:48:42.821Z,0.52
2023-02-25T22:50:49.555Z,0.51
2023-02-25T22:52:51.501Z,0.43
2023-02-25T22:54:54.585Z,0.46
2023-02-25T22:56:56.901Z,0.45
2023-02-25T22:58:59.019Z,0.45
2023-02-25T23:01:01.171Z,0.37
2023-02-25T23:03:03.891Z,0.34
2023-02-25T23:05:06.355Z,0.34
2023-02-25T23:07:08.597Z,0.33
2023-02-25T23:09:15.262Z,0.31
2023-02-25T23:11:22.997Z,0.31
2023-02-25T23:13:25.201Z,0.29
2023-02-25T23:15:28.667Z,0.24
2023-02-25T23:17:30.771Z,0.28
2023-02-25T23:19:33.206Z,0.23
2023-02-25T23:21:35.309Z,0.21
2023-02-25T23:23:41.256Z,0.19
2023-02-25T23:25:49.330Z,0.15
2023-02-25T23:27:51.458Z,0.16
2023-02-25T23:29:53.555Z,0.15
2023-02-25T23:31:55.622Z,0.16
2023-02-25T23:34:00.095Z,0.14
2023-02-25T23:36:05.395Z,0.13
2023-02-25T23:38:07.368Z,0.06
2023-02-25T23:40:11.979Z,0.07
2023-02-25T23:42:21.044Z,0.08
2023-02-25T23:44:23.455Z,0.09
2023-02-25T23:46:27.771Z,0.03
2023-02-25T23:48:31.101Z,0.07
2023-02-25T23:50:33.603Z,0.06
2023-02-25T23:52:36.855Z,0.01
2023-02-25T23:54:39.274Z,0.04
2023-02-25T23:56:42.167Z,-0.01
2023-02-25T23:58:48.281Z,-0.01
